Time,TemperatureF,DewpointF,PressureIn,WindDirection,WindDirectionDegrees,WindSpeedMPH,WindSpeedGustMPH,Humidity,HourlyPrecipIn,Conditions,Clouds,dailyrainin,SoftwareType,DateUTC
2013-03-20 00:00:00,47.8,45.6,29.94,NW,320,0.0,0.0,92,0.00,,,0.37,VWS V14.00,2013-03-20 04:00:00,
2013-03-20 00:01:00,47.8,45.9,29.94,NW,320,0.0,0.0,93,0.00,,,0.00,VWS V14.00,2013-03-20 04:01:00,
2013-03-20 00:06:00,47.6,45.7,29.94,NW,320,0.0,0.0,93,0.00,,,0.00,VWS V14.00,2013-03-20 04:06:00,
2013-03-20 00:11:00,47.5,45.6,29.94,North,5,1.0,2.0,93,0.00,,,0.00,VWS V14.00,2013-03-20 04:11:00,
2013-03-20 00:16:00,47.6,45.7,29.94,North,360,0.0,2.0,93,0.00,,,0.00,VWS V14.00,2013-03-20 04:16:00,
2013-03-20 00:21:00,47.7,45.8,29.94,North,5,0.0,0.0,93,0.00,,,0.00,VWS V14.00,2013-03-20 04:21:00,
2013-03-20 00:26:00,47.7,45.8,29.94,North,360,0.0,0.0,93,0.00,,,0.00,VWS V14.00,2013-03-20 04:26:00,
2013-03-20 00:31:00,47.9,41.7,29.94,North,5,1.0,1.0,79,0.00,,,0.00,VWS V14.00,2013-03-20 04:31:00,
2013-03-20 00:37:00,50.2,40.4,29.94,North,5,1.0,2.0,69,0.00,,,0.00,VWS V14.00,2013-03-20 04:37:00,
2013-03-20 00:42:00,51.8,39.2,29.94,NNE,14,2.0,3.0,62,0.00,,,0.00,VWS V14.00,2013-03-20 04:42:00,
2013-03-20 00:47:00,52.9,38.5,29.94,NNE,19,2.0,3.0,58,0.00,,,0.00,VWS V14.00,2013-03-20 04:47:00,
2013-03-20 00:52:00,53.7,37.5,29.95,NNE,15,3.0,3.0,54,0.00,,,0.00,VWS V14.00,2013-03-20 04:52:00,
2013-03-20 00:57:00,54.1,36.9,29.95,NNE,22,2.0,6.0,52,0.00,,,0.00,VWS V14.00,2013-03-20 04:57:00,
2013-03-20 01:02:00,54.5,37.2,29.95,NNE,21,2.0,3.0,52,0.00,,,0.00,VWS V14.00,2013-03-20 05:02:00,
2013-03-20 01:08:00,54.7,36.4,29.95,North,9,2.0,5.0,50,0.00,,,0.00,VWS V14.00,2013-03-20 05:08:00,
2013-03-20 01:13:00,54.7,36.4,29.95,NNE,26,2.0,3.0,50,0.00,,,0.00,VWS V14.00,2013-03-20 05:13:00,
2013-03-20 01:18:00,54.6,36.3,29.95,NNE,26,3.0,3.0,50,0.00,,,0.00,VWS V14.00,2013-03-20 05:18:00,
2013-03-20 01:23:00,54.3,35.6,29.95,NNE,30,1.0,3.0,49,0.00,,,0.00,VWS V14.00,2013-03-20 05:23:00,
2013-03-20 01:28:00,54.2,36.0,29.95,NNE,22,1.0,3.0,50,0.00,,,0.00,VWS V14.00,2013-03-20 05:28:00,
2013-03-20 01:33:00,54.1,35.9,29.95,NNE,28,1.0,2.0,50,0.00,,,0.00,VWS V14.00,2013-03-20 05:33:00,
2013-03-20 01:38:00,53.9,36.2,29.95,NNE,32,1.0,2.0,51,0.00,,,0.00,VWS V14.00,2013-03-20 05:38:00,
2013-03-20 01:44:00,53.7,36.0,29.94,NNE,32,2.0,3.0,51,0.00,,,0.00,VWS V14.00,2013-03-20 05:44:00,
2013-03-20 01:49:00,53.4,35.7,29.94,NNE,32,1.0,3.0,51,0.00,,,0.00,VWS V14.00,2013-03-20 05:49:00,
2013-03-20 01:54:00,53.2,35.1,29.94,NNE,28,1.0,3.0,50,0.00,,,0.00,VWS V14.00,2013-03-20 05:54:00,
2013-03-20 01:59:00,53.0,35.4,29.94,NNE,28,0.0,3.0,51,0.00,,,0.00,VWS V14.00,2013-03-20 05:59:00,
2013-03-20 02:04:00,52.8,36.2,29.94,NNE,28,0.0,1.0,53,0.00,,,0.00,VWS V14.00,2013-03-20 06:04:00,
2013-03-20 02:09:00,52.5,35.9,29.94,NE,42,2.0,3.0,53,0.00,,,0.00,VWS V14.00,2013-03-20 06:09:00,
2013-03-20 02:14:00,52.4,34.8,29.95,NNE,32,3.0,4.0,51,0.00,,,0.00,VWS V14.00,2013-03-20 06:14:00,
2013-03-20 02:20:00,52.5,34.4,29.95,NNE,33,2.0,4.0,50,0.00,,,0.00,VWS V14.00,2013-03-20 06:20:00,
2013-03-20 02:25:00,52.7,34.1,29.95,NNE,32,2.0,5.0,49,0.00,,,0.00,VWS V14.00,2013-03-20 06:25:00,
2013-03-20 02:30:00,52.7,34.6,29.95,NNE,25,3.0,5.0,50,0.00,,,0.00,VWS V14.00,2013-03-20 06:30:00,
2013-03-20 02:35:00,52.7,33.6,29.95,NE,34,3.0,5.0,48,0.00,,,0.00,VWS V14.00,2013-03-20 06:35:00,
2013-03-20 02:40:00,52.8,33.2,29.95,NNE,33,6.0,6.0,47,0.00,,,0.00,VWS V14.00,2013-03-20 06:40:00,
2013-03-20 02:45:00,53.0,32.8,29.96,NNE,29,3.0,6.0,46,0.00,,,0.00,VWS V14.00,2013-03-20 06:45:00,
2013-03-20 02:50:00,53.2,31.3,29.96,NE,49,2.0,6.0,43,0.00,,,0.00,VWS V14.00,2013-03-20 06:50:00,
2013-03-20 02:55:00,53.4,30.9,29.96,NE,46,4.0,8.0,42,0.00,,,0.00,VWS V14.00,2013-03-20 06:55:00,
2013-03-20 03:00:00,53.5,31.0,29.96,NE,36,2.0,8.0,42,0.00,,,0.00,VWS V14.00,2013-03-20 07:00:00,
2013-03-20 03:05:00,53.4,30.3,29.96,NNE,32,2.0,5.0,41,0.00,,,0.00,VWS V14.00,2013-03-20 07:05:00,
2013-03-20 03:10:00,53.4,29.7,29.96,NE,39,1.0,5.0,40,0.00,,,0.00,VWS V14.00,2013-03-20 07:10:00,
2013-03-20 03:15:00,53.3,30.2,29.96,NE,37,2.0,5.0,41,0.00,,,0.00,VWS V14.00,2013-03-20 07:15:00,
2013-03-20 03:20:00,53.2,30.1,29.96,NNE,33,3.0,5.0,41,0.00,,,0.00,VWS V14.00,2013-03-20 07:20:00,
2013-03-20 03:25:00,53.0,29.3,29.96,NE,38,1.0,4.0,40,0.00,,,0.00,VWS V14.00,2013-03-20 07:25:00,
2013-03-20 03:30:00,52.9,29.9,29.96,NE,49,1.0,4.0,41,0.00,,,0.00,VWS V14.00,2013-03-20 07:30:00,
2013-03-20 03:36:00,52.7,29.1,29.96,NNE,32,1.0,3.0,40,0.00,,,0.00,VWS V14.00,2013-03-20 07:36:00,
2013-03-20 03:41:00,52.6,29.0,29.96,NE,36,1.0,3.0,40,0.00,,,0.00,VWS V14.00,2013-03-20 07:41:00,
2013-03-20 03:46:00,52.5,29.5,29.96,NE,36,1.0,4.0,41,0.00,,,0.00,VWS V14.00,2013-03-20 07:46:00,
2013-03-20 03:51:00,52.2,29.2,29.95,NE,36,1.0,1.0,41,0.00,,,0.00,VWS V14.00,2013-03-20 07:51:00,
2013-03-20 03:56:00,52.1,29.1,29.95,NE,36,2.0,3.0,41,0.00,,,0.00,VWS V14.00,2013-03-20 07:56:00,
2013-03-20 04:01:00,51.9,29.5,29.96,NNE,31,2.0,2.0,42,0.00,,,0.00,VWS V14.00,2013-03-20 08:01:00,
2013-03-20 04:06:00,51.7,29.4,29.96,NNE,31,1.0,3.0,42,0.00,,,0.00,VWS V14.00,2013-03-20 08:06:00,
2013-03-20 04:12:00,51.5,28.6,29.96,NE,35,0.0,2.0,41,0.00,,,0.00,VWS V14.00,2013-03-20 08:12:00,
2013-03-20 04:17:00,51.3,29.0,29.95,NE,35,2.0,2.0,42,0.00,,,0.00,VWS V14.00,2013-03-20 08:17:00,
2013-03-20 04:22:00,51.0,35.0,29.95,NE,35,0.0,1.0,54,0.00,,,0.00,VWS V14.00,2013-03-20 08:22:00,
2013-03-20 04:27:00,49.8,34.8,29.96,NE,35,0.0,1.0,56,0.00,,,0.00,VWS V14.00,2013-03-20 08:27:00,
2013-03-20 04:32:00,48.6,34.5,29.96,NE,35,0.0,0.0,58,0.00,,,0.00,VWS V14.00,2013-03-20 08:32:00,
2013-03-20 04:37:00,47.7,36.5,29.96,NE,35,0.0,0.0,65,0.00,,,0.00,VWS V14.00,2013-03-20 08:37:00,
2013-03-20 04:42:00,47.2,36.4,29.96,NE,34,0.0,0.0,66,0.00,,,0.00,VWS V14.00,2013-03-20 08:42:00,
2013-03-20 04:47:00,46.8,36.8,29.96,NE,35,0.0,0.0,68,0.00,,,0.00,VWS V14.00,2013-03-20 08:47:00,
2013-03-20 04:52:00,46.4,37.9,29.96,NE,34,0.0,0.0,72,0.00,,,0.00,VWS V14.00,2013-03-20 08:52:00,
2013-03-20 04:57:00,46.1,37.2,29.96,NE,35,0.0,0.0,71,0.00,,,0.00,VWS V14.00,2013-03-20 08:57:00,
2013-03-20 05:03:00,45.6,36.4,29.96,NE,34,0.0,0.0,70,0.00,,,0.00,VWS V14.00,2013-03-20 09:03:00,
2013-03-20 05:08:00,45.2,36.7,29.96,NE,35,0.0,0.0,72,0.00,,,0.00,VWS V14.00,2013-03-20 09:08:00,
2013-03-20 05:13:00,44.7,35.5,29.96,NE,34,0.0,0.0,70,0.00,,,0.00,VWS V14.00,2013-03-20 09:13:00,
2013-03-20 05:18:00,44.4,36.0,29.97,NE,35,0.0,0.0,72,0.00,,,0.00,VWS V14.00,2013-03-20 09:18:00,
2013-03-20 05:23:00,44.1,36.0,29.97,NE,34,0.0,0.0,73,0.00,,,0.00,VWS V14.00,2013-03-20 09:23:00,
2013-03-20 05:28:00,43.8,35.7,29.97,NE,34,0.0,0.0,73,0.00,,,0.00,VWS V14.00,2013-03-20 09:28:00,
2013-03-20 05:33:00,43.5,35.8,29.97,NE,34,0.0,0.0,74,0.00,,,0.00,VWS V14.00,2013-03-20 09:33:00,
2013-03-20 05:38:00,43.3,35.9,29.97,NE,35,0.0,0.0,75,0.00,,,0.00,VWS V14.00,2013-03-20 09:38:00,
2013-03-20 05:43:00,43.0,35.3,29.98,NE,35,0.0,0.0,74,0.00,,,0.00,VWS V14.00,2013-03-20 09:43:00,
2013-03-20 05:49:00,42.7,35.3,29.98,NE,35,0.0,0.0,75,0.00,,,0.00,VWS V14.00,2013-03-20 09:49:00,
2013-03-20 05:54:00,42.6,35.9,29.99,NE,34,0.0,0.0,77,0.00,,,0.00,VWS V14.00,2013-03-20 09:54:00,
2013-03-20 05:59:00,42.4,36.4,29.99,NE,34,0.0,0.0,79,0.00,,,0.00,VWS V14.00,2013-03-20 09:59:00,
2013-03-20 06:04:00,42.3,37.2,29.99,NE,35,0.0,0.0,82,0.00,,,0.00,VWS V14.00,2013-03-20 10:04:00,
2013-03-20 06:09:00,42.2,37.4,29.99,NE,35,0.0,0.0,83,0.00,,,0.00,VWS V14.00,2013-03-20 10:09:00,
2013-03-20 06:14:00,42.0,36.9,29.99,NE,35,0.0,0.0,82,0.00,,,0.00,VWS V14.00,2013-03-20 10:14:00,
2013-03-20 06:19:00,41.8,36.7,30.00,NE,35,0.0,0.0,82,0.00,,,0.00,VWS V14.00,2013-03-20 10:19:00,
2013-03-20 06:24:00,41.5,36.1,30.00,NE,35,0.0,0.0,81,0.00,,,0.00,VWS V14.00,2013-03-20 10:24:00,
2013-03-20 06:29:00,41.2,35.5,30.00,NE,35,0.0,0.0,80,0.00,,,0.00,VWS V14.00,2013-03-20 10:29:00,
2013-03-20 06:34:00,41.0,35.3,30.00,NE,34,0.0,0.0,80,0.00,,,0.00,VWS V14.00,2013-03-20 10:34:00,
2013-03-20 06:39:00,40.8,35.1,30.01,NE,35,0.0,0.0,80,0.00,,,0.00,VWS V14.00,2013-03-20 10:39:00,
2013-03-20 06:45:00,40.6,35.2,30.01,NE,35,0.0,0.0,81,0.00,,,0.00,VWS V14.00,2013-03-20 10:45:00,
2013-03-20 06:50:00,40.4,34.7,30.01,NE,35,0.0,0.0,80,0.00,,,0.00,VWS V14.00,2013-03-20 10:50:00,
2013-03-20 06:55:00,40.3,34.9,30.01,NE,35,0.0,0.0,81,0.00,,,0.00,VWS V14.00,2013-03-20 10:55:00,
2013-03-20 07:00:00,40.2,35.2,30.01,NE,35,0.0,0.0,82,0.00,,,0.00,VWS V14.00,2013-03-20 11:00:00,
2013-03-20 07:05:00,40.1,35.1,30.01,NE,35,0.0,0.0,82,0.00,,,0.00,VWS V14.00,2013-03-20 11:05:00,
2013-03-20 07:10:00,39.9,34.9,30.01,NE,35,0.0,0.0,82,0.00,,,0.00,VWS V14.00,2013-03-20 11:10:00,
2013-03-20 07:15:00,39.8,34.8,30.01,NE,35,0.0,0.0,82,0.00,,,0.00,VWS V14.00,2013-03-20 11:15:00,
2013-03-20 07:20:00,39.7,35.0,30.02,NE,35,0.0,0.0,83,0.00,,,0.00,VWS V14.00,2013-03-20 11:20:00,
2013-03-20 07:25:00,39.5,35.1,30.02,NE,34,0.0,0.0,84,0.00,,,0.00,VWS V14.00,2013-03-20 11:25:00,
2013-03-20 07:30:00,39.4,35.3,30.02,NE,35,0.0,0.0,85,0.00,,,0.00,VWS V14.00,2013-03-20 11:30:00,
2013-03-20 07:36:00,39.4,35.6,30.02,NE,34,0.0,0.0,86,0.00,,,0.00,VWS V14.00,2013-03-20 11:36:00,
2013-03-20 07:41:00,39.5,36.5,30.02,NE,34,0.0,0.0,89,0.00,,,0.00,VWS V14.00,2013-03-20 11:41:00,
2013-03-20 07:46:00,39.7,37.0,30.03,NE,35,0.0,0.0,90,0.00,,,0.00,VWS V14.00,2013-03-20 11:46:00,
2013-03-20 07:51:00,39.7,37.0,30.03,NE,35,0.0,0.0,90,0.00,,,0.00,VWS V14.00,2013-03-20 11:51:00,
2013-03-20 07:56:00,39.7,36.7,30.03,NE,34,0.0,0.0,89,0.00,,,0.00,VWS V14.00,2013-03-20 11:56:00,
2013-03-20 08:01:00,39.8,36.8,30.04,NE,35,0.0,0.0,89,0.00,,,0.00,VWS V14.00,2013-03-20 12:01:00,
2013-03-20 08:07:00,39.9,37.2,30.04,NE,34,0.0,0.0,90,0.00,,,0.00,VWS V14.00,2013-03-20 12:07:00,
2013-03-20 08:12:00,40.1,37.4,30.04,NE,35,0.0,0.0,90,0.00,,,0.00,VWS V14.00,2013-03-20 12:12:00,
2013-03-20 08:17:00,40.3,37.6,30.05,NE,35,0.0,0.0,90,0.00,,,0.00,VWS V14.00,2013-03-20 12:17:00,
2013-03-20 08:22:00,40.7,38.0,30.05,NE,35,0.0,0.0,90,0.00,,,0.00,VWS V14.00,2013-03-20 12:22:00,
2013-03-20 08:27:00,41.0,38.6,30.05,NE,34,0.0,0.0,91,0.00,,,0.00,VWS V14.00,2013-03-20 12:27:00,
2013-03-20 08:32:00,41.5,39.1,30.05,NE,35,1.0,1.0,91,0.00,,,0.00,VWS V14.00,2013-03-20 12:32:00,
2013-03-20 08:37:00,42.6,35.6,30.05,NE,55,1.0,2.0,76,0.00,,,0.00,VWS V14.00,2013-03-20 12:37:00,
2013-03-20 08:42:00,44.2,34.3,30.06,NE,51,1.0,3.0,68,0.00,,,0.00,VWS V14.00,2013-03-20 12:42:00,
2013-03-20 08:47:00,45.4,33.6,30.06,ENE,57,2.0,4.0,63,0.00,,,0.00,VWS V14.00,2013-03-20 12:47:00,
2013-03-20 08:53:00,46.3,33.6,30.05,NE,39,2.0,3.0,61,0.00,,,0.00,VWS V14.00,2013-03-20 12:53:00,
2013-03-20 08:58:00,46.9,34.2,30.05,NE,44,2.0,5.0,61,0.00,,,0.00,VWS V14.00,2013-03-20 12:58:00,
2013-03-20 09:03:00,47.2,31.9,30.05,NE,48,2.0,4.0,55,0.00,,,0.00,VWS V14.00,2013-03-20 13:03:00,
2013-03-20 09:08:00,47.5,32.2,30.05,ENE,57,0.0,4.0,55,0.00,,,0.00,VWS V14.00,2013-03-20 13:08:00,
2013-03-20 09:13:00,48.1,31.8,30.06,ENE,59,3.0,3.0,53,0.00,,,0.00,VWS V14.00,2013-03-20 13:13:00,
2013-03-20 09:18:00,48.8,29.5,30.06,NE,49,5.0,7.0,47,0.00,,,0.00,VWS V14.00,2013-03-20 13:18:00,
2013-03-20 09:23:00,49.5,28.0,30.06,ENE,60,4.0,7.0,43,0.00,,,0.00,VWS V14.00,2013-03-20 13:23:00,
2013-03-20 09:28:00,50.1,26.1,30.06,ENE,59,3.0,7.0,39,0.00,,,0.00,VWS V14.00,2013-03-20 13:28:00,
2013-03-20 09:33:00,50.3,25.0,30.06,NE,51,3.0,9.0,37,0.00,,,0.00,VWS V14.00,2013-03-20 13:33:00,
2013-03-20 09:38:00,50.7,23.4,30.07,NNE,31,5.0,11.0,34,0.00,,,0.00,VWS V14.00,2013-03-20 13:38:00,
2013-03-20 09:43:00,50.9,23.5,30.06,ENE,69,3.0,10.0,34,0.00,,,0.00,VWS V14.00,2013-03-20 13:43:00,
2013-03-20 09:49:00,51.1,20.8,30.07,NE,36,6.0,10.0,30,0.00,,,0.00,VWS V14.00,2013-03-20 13:49:00,
2013-03-20 09:54:00,51.2,23.1,30.07,NE,48,11.0,12.0,33,0.00,,,0.00,VWS V14.00,2013-03-20 13:54:00,
2013-03-20 09:59:00,51.2,20.9,30.07,NNE,18,6.0,12.0,30,0.00,,,0.00,VWS V14.00,2013-03-20 13:59:00,
2013-03-20 10:04:00,51.0,20.7,30.07,NE,38,4.0,8.0,30,0.00,,,0.00,VWS V14.00,2013-03-20 14:04:00,
2013-03-20 10:09:00,51.0,20.7,30.07,NE,41,6.0,10.0,30,0.00,,,0.00,VWS V14.00,2013-03-20 14:09:00,
2013-03-20 10:14:00,51.1,21.5,30.08,NE,44,4.0,6.0,31,0.00,,,0.00,VWS V14.00,2013-03-20 14:14:00,
2013-03-20 10:19:00,51.3,20.9,30.08,NE,44,6.0,10.0,30,0.00,,,0.00,VWS V14.00,2013-03-20 14:19:00,
2013-03-20 10:24:00,51.4,22.5,30.07,NE,55,3.0,10.0,32,0.00,,,0.00,VWS V14.00,2013-03-20 14:24:00,
2013-03-20 10:30:00,51.8,22.1,30.07,NE,40,4.0,10.0,31,0.00,,,0.00,VWS V14.00,2013-03-20 14:30:00,
2013-03-20 10:35:00,51.9,21.5,30.07,NE,40,4.0,9.0,30,0.00,,,0.00,VWS V14.00,2013-03-20 14:35:00,
2013-03-20 10:40:00,52.0,21.5,30.07,ENE,67,4.0,9.0,30,0.00,,,0.00,VWS V14.00,2013-03-20 14:40:00,
2013-03-20 10:45:00,52.3,22.6,30.07,NNE,30,4.0,5.0,31,0.00,,,0.00,VWS V14.00,2013-03-20 14:45:00,
2013-03-20 10:50:00,52.7,23.7,30.06,ENE,77,6.0,10.0,32,0.00,,,0.00,VWS V14.00,2013-03-20 14:50:00,
2013-03-20 10:55:00,52.8,22.2,30.06,NE,46,4.0,6.0,30,0.00,,,0.00,VWS V14.00,2013-03-20 14:55:00,
2013-03-20 11:00:00,53.0,23.2,30.06,NE,40,6.0,7.0,31,0.00,,,0.00,VWS V14.00,2013-03-20 15:00:00,
2013-03-20 11:05:00,53.1,23.3,30.06,NNE,28,6.0,7.0,31,0.00,,,0.00,VWS V14.00,2013-03-20 15:05:00,
2013-03-20 11:11:00,53.3,21.9,30.06,NNE,30,3.0,7.0,29,0.00,,,0.00,VWS V14.00,2013-03-20 15:11:00,
2013-03-20 11:16:00,53.5,22.0,30.05,ENE,64,4.0,7.0,29,0.00,,,0.00,VWS V14.00,2013-03-20 15:16:00,
2013-03-20 11:21:00,53.8,23.1,30.05,NE,53,2.0,3.0,30,0.00,,,0.00,VWS V14.00,2013-03-20 15:21:00,
2013-03-20 11:26:00,53.9,22.4,30.06,NNE,31,9.0,9.0,29,0.00,,,0.00,VWS V14.00,2013-03-20 15:26:00,
2013-03-20 11:32:00,54.2,22.6,30.05,East,91,2.0,3.0,29,0.00,,,0.00,VWS V14.00,2013-03-20 15:32:00,
2013-03-20 11:37:00,55.0,22.5,30.05,ENE,72,0.0,5.0,28,0.00,,,0.00,VWS V14.00,2013-03-20 15:37:00,
2013-03-20 11:42:00,55.6,24.7,30.05,NNE,30,4.0,6.0,30,0.00,,,0.00,VWS V14.00,2013-03-20 15:42:00,
2013-03-20 11:47:00,55.8,23.2,30.05,NE,53,5.0,7.0,28,0.00,,,0.00,VWS V14.00,2013-03-20 15:47:00,
2013-03-20 11:52:00,55.5,22.1,30.05,NE,56,3.0,10.0,27,0.00,,,0.00,VWS V14.00,2013-03-20 15:52:00,
2013-03-20 11:57:00,55.3,21.0,30.04,NE,40,6.0,10.0,26,0.00,,,0.00,VWS V14.00,2013-03-20 15:57:00,
2013-03-20 12:02:00,54.9,20.7,30.04,ENE,71,7.0,7.0,26,0.00,,,0.00,VWS V14.00,2013-03-20 16:02:00,
2013-03-20 12:07:00,54.9,22.4,30.04,NE,40,3.0,8.0,28,0.00,,,0.00,VWS V14.00,2013-03-20 16:07:00,
2013-03-20 12:12:00,55.3,21.9,30.04,East,92,3.0,4.0,27,0.00,,,0.00,VWS V14.00,2013-03-20 16:12:00,
2013-03-20 12:18:00,55.9,23.3,30.04,NE,54,1.0,4.0,28,0.00,,,0.00,VWS V14.00,2013-03-20 16:18:00,
2013-03-20 12:23:00,56.1,23.5,30.04,NE,37,3.0,4.0,28,0.00,,,0.00,VWS V14.00,2013-03-20 16:23:00,
2013-03-20 12:28:00,56.1,21.7,30.03,NE,40,5.0,10.0,26,0.00,,,0.00,VWS V14.00,2013-03-20 16:28:00,
2013-03-20 12:33:00,55.8,22.3,30.03,NE,46,4.0,6.0,27,0.00,,,0.00,VWS V14.00,2013-03-20 16:33:00,
2013-03-20 12:38:00,55.7,20.4,30.03,NE,47,4.0,9.0,25,0.00,,,0.00,VWS V14.00,2013-03-20 16:38:00,
2013-03-20 12:43:00,55.7,21.4,30.03,ENE,64,1.0,5.0,26,0.00,,,0.00,VWS V14.00,2013-03-20 16:43:00,
2013-03-20 12:48:00,55.7,22.3,30.03,NE,53,0.0,7.0,27,0.00,,,0.00,VWS V14.00,2013-03-20 16:48:00,
2013-03-20 12:53:00,55.7,24.8,30.02,NNW,336,2.0,4.0,30,0.00,,,0.00,VWS V14.00,2013-03-20 16:53:00,
2013-03-20 12:59:00,56.0,21.6,30.02,NE,54,2.0,6.0,26,0.00,,,0.00,VWS V14.00,2013-03-20 16:59:00,
2013-03-20 13:04:00,56.1,22.6,30.02,ENE,74,3.0,5.0,27,0.00,,,0.00,VWS V14.00,2013-03-20 17:04:00,
2013-03-20 13:09:00,56.6,23.9,30.01,ENE,63,3.0,6.0,28,0.00,,,0.00,VWS V14.00,2013-03-20 17:09:00,
2013-03-20 13:14:00,56.9,22.4,30.01,ENE,58,5.0,6.0,26,0.00,,,0.00,VWS V14.00,2013-03-20 17:14:00,
2013-03-20 13:19:00,57.0,21.5,30.01,NNE,24,5.0,6.0,25,0.00,,,0.00,VWS V14.00,2013-03-20 17:19:00,
2013-03-20 13:24:00,56.9,21.5,30.01,East,80,1.0,4.0,25,0.00,,,0.00,VWS V14.00,2013-03-20 17:24:00,
2013-03-20 13:29:00,57.1,22.6,30.01,NNE,30,5.0,5.0,26,0.00,,,0.00,VWS V14.00,2013-03-20 17:29:00,
2013-03-20 13:34:00,57.1,21.6,30.00,NNE,29,2.0,5.0,25,0.00,,,0.00,VWS V14.00,2013-03-20 17:34:00,
2013-03-20 13:39:00,57.5,21.0,30.00,South,188,2.0,5.0,24,0.00,,,0.00,VWS V14.00,2013-03-20 17:39:00,
2013-03-20 13:44:00,58.3,21.7,30.00,NNE,29,3.0,6.0,24,0.00,,,0.00,VWS V14.00,2013-03-20 17:44:00,
2013-03-20 13:50:00,58.3,22.6,29.99,NNW,347,0.0,6.0,25,0.00,,,0.00,VWS V14.00,2013-03-20 17:50:00,
2013-03-20 13:55:00,58.7,22.0,29.99,North,360,1.0,3.0,24,0.00,,,0.00,VWS V14.00,2013-03-20 17:55:00,
2013-03-20 14:00:00,59.2,23.4,29.99,North,349,3.0,4.0,25,0.00,,,0.00,VWS V14.00,2013-03-20 18:00:00,
2013-03-20 14:05:00,59.3,23.5,29.99,West,273,3.0,7.0,25,0.00,,,0.00,VWS V14.00,2013-03-20 18:05:00,
2013-03-20 14:10:00,59.5,22.7,29.98,NE,34,2.0,7.0,24,0.00,,,0.00,VWS V14.00,2013-03-20 18:10:00,
2013-03-20 14:15:00,59.3,23.5,29.98,ENE,58,5.0,7.0,25,0.00,,,0.00,VWS V14.00,2013-03-20 18:15:00,
2013-03-20 14:20:00,58.6,21.9,29.98,NE,35,2.0,7.0,24,0.00,,,0.00,VWS V14.00,2013-03-20 18:20:00,
2013-03-20 14:25:00,58.2,21.6,29.97,NNW,345,0.0,1.0,24,0.00,,,0.00,VWS V14.00,2013-03-20 18:25:00,
2013-03-20 14:30:00,58.5,21.9,29.97,NE,53,1.0,2.0,24,0.00,,,0.00,VWS V14.00,2013-03-20 18:30:00,
2013-03-20 14:35:00,58.3,19.6,29.97,NNE,30,3.0,4.0,22,0.00,,,0.00,VWS V14.00,2013-03-20 18:35:00,
2013-03-20 14:40:00,58.0,18.3,29.96,ENE,57,0.0,4.0,21,0.00,,,0.00,VWS V14.00,2013-03-20 18:40:00,
2013-03-20 14:46:00,58.2,21.6,29.95,NE,44,1.0,2.0,24,0.00,,,0.00,VWS V14.00,2013-03-20 18:46:00,
2013-03-20 14:51:00,58.3,18.6,29.95,NW,317,0.0,3.0,21,0.00,,,0.00,VWS V14.00,2013-03-20 18:51:00,
2013-03-20 14:56:00,58.4,19.7,29.94,WNW,294,0.0,3.0,22,0.00,,,0.00,VWS V14.00,2013-03-20 18:56:00,
2013-03-20 15:01:00,58.8,19.0,29.93,West,261,0.0,0.0,21,0.00,,,0.00,VWS V14.00,2013-03-20 19:01:00,
2013-03-20 15:07:00,59.2,18.2,29.93,South,171,1.0,3.0,20,0.00,,,0.00,VWS V14.00,2013-03-20 19:07:00,
2013-03-20 15:12:00,59.6,22.8,29.93,WNW,296,2.0,4.0,24,0.00,,,0.00,VWS V14.00,2013-03-20 19:12:00,
2013-03-20 15:17:00,59.6,24.7,29.92,WSW,256,3.0,4.0,26,0.00,,,0.00,VWS V14.00,2013-03-20 19:17:00,
2013-03-20 15:22:00,59.7,21.9,29.91,ESE,115,2.0,3.0,23,0.00,,,0.00,VWS V14.00,2013-03-20 19:22:00,
2013-03-20 15:27:00,59.7,23.9,29.91,ENE,67,2.0,3.0,25,0.00,,,0.00,VWS V14.00,2013-03-20 19:27:00,
2013-03-20 15:32:00,59.5,21.7,29.90,SSE,151,0.0,3.0,23,0.00,,,0.00,VWS V14.00,2013-03-20 19:32:00,
2013-03-20 15:37:00,59.4,23.6,29.90,ENE,64,2.0,3.0,25,0.00,,,0.00,VWS V14.00,2013-03-20 19:37:00,
2013-03-20 15:43:00,59.2,25.3,29.90,SE,144,1.0,3.0,27,0.00,,,0.00,VWS V14.00,2013-03-20 19:43:00,
2013-03-20 15:48:00,58.9,27.5,29.90,South,171,0.0,3.0,30,0.00,,,0.00,VWS V14.00,2013-03-20 19:48:00,
2013-03-20 15:53:00,58.6,28.9,29.90,SE,130,2.0,4.0,32,0.00,,,0.00,VWS V14.00,2013-03-20 19:53:00,
2013-03-20 15:58:00,58.1,28.4,29.89,SSE,162,2.0,4.0,32,0.00,,,0.00,VWS V14.00,2013-03-20 19:58:00,
2013-03-20 16:03:00,57.9,30.4,29.89,East,90,0.0,2.0,35,0.00,,,0.00,VWS V14.00,2013-03-20 20:03:00,
2013-03-20 16:08:00,57.7,30.3,29.88,SSE,157,0.0,5.0,35,0.00,,,0.00,VWS V14.00,2013-03-20 20:08:00,
2013-03-20 16:13:00,57.4,31.4,29.88,ENE,77,0.0,4.0,37,0.00,,,0.00,VWS V14.00,2013-03-20 20:13:00,
2013-03-20 16:18:00,57.2,31.2,29.88,SSE,148,0.0,4.0,37,0.00,,,0.00,VWS V14.00,2013-03-20 20:18:00,
2013-03-20 16:23:00,57.2,31.2,29.88,East,97,1.0,2.0,37,0.00,,,0.00,VWS V14.00,2013-03-20 20:23:00,
2013-03-20 16:29:00,57.1,30.4,29.88,SE,134,3.0,3.0,36,0.00,,,0.00,VWS V14.00,2013-03-20 20:29:00,
2013-03-20 16:34:00,56.9,31.6,29.88,SE,136,0.0,3.0,38,0.00,,,0.00,VWS V14.00,2013-03-20 20:34:00,
2013-03-20 16:39:00,56.7,32.7,29.87,SE,132,0.0,4.0,40,0.00,,,0.00,VWS V14.00,2013-03-20 20:39:00,
2013-03-20 16:44:00,56.6,32.0,29.87,SE,139,3.0,3.0,39,0.00,,,0.00,VWS V14.00,2013-03-20 20:44:00,
2013-03-20 16:49:00,56.3,32.3,29.87,SSE,148,0.0,4.0,40,0.00,,,0.00,VWS V14.00,2013-03-20 20:49:00,
2013-03-20 16:54:00,56.3,31.7,29.87,SE,134,0.0,3.0,39,0.00,,,0.00,VWS V14.00,2013-03-20 20:54:00,
2013-03-20 16:59:00,56.3,32.9,29.87,SE,138,3.0,3.0,41,0.00,,,0.00,VWS V14.00,2013-03-20 20:59:00,
2013-03-20 17:04:00,56.1,32.7,29.86,SW,227,2.0,5.0,41,0.00,,,0.00,VWS V14.00,2013-03-20 21:04:00,
2013-03-20 17:09:00,55.9,32.6,29.86,SE,133,1.0,5.0,41,0.00,,,0.00,VWS V14.00,2013-03-20 21:09:00,
2013-03-20 17:14:00,55.6,33.5,29.86,SE,139,3.0,5.0,43,0.00,,,0.00,VWS V14.00,2013-03-20 21:14:00,
2013-03-20 17:19:00,55.5,33.4,29.86,SE,139,1.0,5.0,43,0.00,,,0.00,VWS V14.00,2013-03-20 21:19:00,
2013-03-20 17:24:00,55.3,32.6,29.85,SSE,159,0.0,5.0,42,0.00,,,0.00,VWS V14.00,2013-03-20 21:24:00,
2013-03-20 17:30:00,55.0,33.5,29.85,South,177,0.0,5.0,44,0.00,,,0.00,VWS V14.00,2013-03-20 21:30:00,
2013-03-20 17:35:00,54.7,33.8,29.85,ESE,121,1.0,5.0,45,0.00,,,0.00,VWS V14.00,2013-03-20 21:35:00,
2013-03-20 17:40:00,54.5,34.2,29.85,SE,128,1.0,5.0,46,0.00,,,0.00,VWS V14.00,2013-03-20 21:40:00,
2013-03-20 17:45:00,54.3,34.0,29.86,SSW,195,1.0,2.0,46,0.00,,,0.00,VWS V14.00,2013-03-20 21:45:00,
2013-03-20 17:50:00,54.2,35.5,29.86,SSW,195,0.0,2.0,49,0.00,,,0.00,VWS V14.00,2013-03-20 21:50:00,
2013-03-20 17:55:00,54.1,36.4,29.86,SE,140,0.0,1.0,51,0.00,,,0.00,VWS V14.00,2013-03-20 21:55:00,
2013-03-20 18:00:00,54.0,35.8,29.86,SE,144,0.0,2.0,50,0.00,,,0.00,VWS V14.00,2013-03-20 22:00:00,
2013-03-20 18:05:00,53.9,35.2,29.86,SE,125,0.0,3.0,49,0.00,,,0.00,VWS V14.00,2013-03-20 22:05:00,
2013-03-20 18:10:00,53.7,35.5,29.86,SSE,159,0.0,4.0,50,0.00,,,0.00,VWS V14.00,2013-03-20 22:10:00,
2013-03-20 18:15:00,53.6,35.4,29.86,SSE,159,0.0,0.0,50,0.00,,,0.00,VWS V14.00,2013-03-20 22:15:00,
2013-03-20 18:21:00,53.5,35.8,29.86,SSE,159,0.0,0.0,51,0.00,,,0.00,VWS V14.00,2013-03-20 22:21:00,
2013-03-20 18:26:00,53.3,36.6,29.87,SSE,159,0.0,0.0,53,0.00,,,0.00,VWS V14.00,2013-03-20 22:26:00,
2013-03-20 18:31:00,53.2,37.0,29.87,SSE,159,0.0,0.0,54,0.00,,,0.00,VWS V14.00,2013-03-20 22:31:00,
2013-03-20 18:36:00,53.1,37.8,29.86,SSE,159,0.0,0.0,56,0.00,,,0.00,VWS V14.00,2013-03-20 22:36:00,
2013-03-20 18:41:00,52.9,39.4,29.87,SSE,159,0.0,0.0,60,0.00,,,0.00,VWS V14.00,2013-03-20 22:41:00,
2013-03-20 18:47:00,52.6,38.3,29.87,SSE,159,0.0,0.0,58,0.00,,,0.00,VWS V14.00,2013-03-20 22:47:00,
2013-03-20 18:52:00,52.6,38.7,29.87,SSE,159,0.0,0.0,59,0.00,,,0.00,VWS V14.00,2013-03-20 22:52:00,
2013-03-20 18:57:00,52.4,38.5,29.87,SSE,159,0.0,0.0,59,0.00,,,0.00,VWS V14.00,2013-03-20 22:57:00,
2013-03-20 19:02:00,52.2,39.2,29.86,SSE,159,0.0,0.0,61,0.00,,,0.00,VWS V14.00,2013-03-20 23:02:00,
2013-03-20 19:07:00,52.0,39.0,29.87,SSE,159,0.0,0.0,61,0.00,,,0.00,VWS V14.00,2013-03-20 23:07:00,
2013-03-20 19:12:00,51.7,39.5,29.87,SSE,159,0.0,0.0,63,0.00,,,0.00,VWS V14.00,2013-03-20 23:12:00,
2013-03-20 19:17:00,51.6,40.2,29.87,SSE,159,0.0,0.0,65,0.00,,,0.00,VWS V14.00,2013-03-20 23:17:00,
2013-03-20 19:22:00,51.3,40.0,29.87,SSE,159,0.0,0.0,65,0.00,,,0.00,VWS V14.00,2013-03-20 23:22:00,
2013-03-20 19:27:00,51.1,40.2,29.87,SSE,159,0.0,0.0,66,0.00,,,0.00,VWS V14.00,2013-03-20 23:27:00,
2013-03-20 19:32:00,50.9,40.0,29.86,SSE,159,0.0,0.0,66,0.00,,,0.00,VWS V14.00,2013-03-20 23:32:00,
2013-03-20 19:38:00,50.7,40.5,29.86,SSE,159,0.0,0.0,68,0.00,,,0.00,VWS V14.00,2013-03-20 23:38:00,
2013-03-20 19:43:00,50.4,41.0,29.86,SSE,159,0.0,0.0,70,0.00,,,0.00,VWS V14.00,2013-03-20 23:43:00,
2013-03-20 19:48:00,50.2,41.9,29.86,SSE,159,0.0,0.0,73,0.00,,,0.00,VWS V14.00,2013-03-20 23:48:00,
2013-03-20 19:53:00,50.1,41.8,29.85,SSE,159,0.0,0.0,73,0.00,,,0.00,VWS V14.00,2013-03-20 23:53:00,
2013-03-20 19:58:00,50.0,41.7,29.85,SSE,159,0.0,0.0,73,0.00,,,0.00,VWS V14.00,2013-03-20 23:58:00,
2013-03-20 20:03:00,49.9,42.7,29.85,SSE,159,0.0,0.0,76,0.00,,,0.00,VWS V14.00,2013-03-21 00:03:00,
2013-03-20 20:08:00,49.8,42.9,29.85,SSE,159,0.0,0.0,77,0.00,,,0.00,VWS V14.00,2013-03-21 00:08:00,
2013-03-20 20:13:00,49.7,42.8,29.85,SSE,159,0.0,0.0,77,0.00,,,0.00,VWS V14.00,2013-03-21 00:13:00,
2013-03-20 20:18:00,49.6,42.7,29.84,SSE,159,0.0,0.0,77,0.00,,,0.00,VWS V14.00,2013-03-21 00:18:00,
2013-03-20 20:24:00,49.6,43.0,29.84,SSE,159,0.0,0.0,78,0.00,,,0.00,VWS V14.00,2013-03-21 00:24:00,
2013-03-20 20:29:00,49.5,43.3,29.84,SSE,159,0.0,0.0,79,0.00,,,0.00,VWS V14.00,2013-03-21 00:29:00,
2013-03-20 20:34:00,49.3,43.4,29.84,SSE,159,0.0,0.0,80,0.00,,,0.00,VWS V14.00,2013-03-21 00:34:00,
2013-03-20 20:39:00,49.1,43.2,29.83,SSE,159,0.0,0.0,80,0.00,,,0.00,VWS V14.00,2013-03-21 00:39:00,
2013-03-20 20:44:00,48.9,42.7,29.83,SSE,159,0.0,0.0,79,0.00,,,0.00,VWS V14.00,2013-03-21 00:44:00,
2013-03-20 20:49:00,48.6,42.7,29.83,SSE,159,0.0,0.0,80,0.00,,,0.00,VWS V14.00,2013-03-21 00:49:00,
2013-03-20 20:54:00,48.4,42.8,29.82,SSE,159,0.0,0.0,81,0.00,,,0.00,VWS V14.00,2013-03-21 00:54:00,
2013-03-20 20:59:00,48.2,42.3,29.82,SSE,159,0.0,0.0,80,0.00,,,0.00,VWS V14.00,2013-03-21 00:59:00,
2013-03-20 21:04:00,48.0,42.5,29.83,SSE,159,0.0,0.0,81,0.00,,,0.00,VWS V14.00,2013-03-21 01:04:00,
2013-03-20 21:09:00,47.8,42.3,29.82,SSE,159,0.0,0.0,81,0.00,,,0.00,VWS V14.00,2013-03-21 01:09:00,
2013-03-20 21:14:00,47.7,42.5,29.82,SSE,159,0.0,0.0,82,0.00,,,0.00,VWS V14.00,2013-03-21 01:14:00,
2013-03-20 21:19:00,47.5,42.3,29.82,SSE,159,0.0,0.0,82,0.00,,,0.00,VWS V14.00,2013-03-21 01:19:00,
2013-03-20 21:24:00,47.4,42.2,29.82,SSE,159,0.0,0.0,82,0.00,,,0.00,VWS V14.00,2013-03-21 01:24:00,
2013-03-20 21:30:00,47.2,42.3,29.82,SSE,159,0.0,0.0,83,0.00,,,0.00,VWS V14.00,2013-03-21 01:30:00,
2013-03-20 21:35:00,47.1,42.5,29.82,SSE,159,0.0,0.0,84,0.00,,,0.00,VWS V14.00,2013-03-21 01:35:00,
2013-03-20 21:40:00,46.9,42.3,29.81,SSE,159,0.0,0.0,84,0.00,,,0.00,VWS V14.00,2013-03-21 01:40:00,
2013-03-20 21:45:00,46.6,42.0,29.81,SSE,159,0.0,0.0,84,0.00,,,0.00,VWS V14.00,2013-03-21 01:45:00,
2013-03-20 21:50:00,46.3,41.7,29.81,SSE,159,0.0,0.0,84,0.00,,,0.00,VWS V14.00,2013-03-21 01:50:00,
2013-03-20 21:55:00,45.9,41.7,29.81,SSE,159,0.0,0.0,85,0.00,,,0.00,VWS V14.00,2013-03-21 01:55:00,
2013-03-20 22:00:00,45.6,41.4,29.81,SSE,159,0.0,0.0,85,0.00,,,0.00,VWS V14.00,2013-03-21 02:00:00,
2013-03-20 22:05:00,45.2,41.0,29.81,SSE,159,0.0,0.0,85,0.00,,,0.00,VWS V14.00,2013-03-21 02:05:00,
2013-03-20 22:11:00,44.9,41.0,29.81,SSE,159,0.0,0.0,86,0.00,,,0.00,VWS V14.00,2013-03-21 02:11:00,
2013-03-20 22:16:00,44.6,40.7,29.81,SSE,159,0.0,0.0,86,0.00,,,0.00,VWS V14.00,2013-03-21 02:16:00,
2013-03-20 22:21:00,44.3,41.0,29.81,SSE,159,0.0,0.0,88,0.00,,,0.00,VWS V14.00,2013-03-21 02:21:00,
2013-03-20 22:26:00,44.0,40.7,29.80,SSE,159,0.0,0.0,88,0.00,,,0.00,VWS V14.00,2013-03-21 02:26:00,
2013-03-20 22:31:00,43.6,40.3,29.81,SSE,159,0.0,0.0,88,0.00,,,0.00,VWS V14.00,2013-03-21 02:31:00,
2013-03-20 22:37:00,43.3,40.3,29.81,SSE,159,0.0,0.0,89,0.00,,,0.00,VWS V14.00,2013-03-21 02:37:00,
2013-03-20 22:42:00,43.0,40.3,29.81,SSE,159,0.0,0.0,90,0.00,,,0.00,VWS V14.00,2013-03-21 02:42:00,
2013-03-20 22:47:00,42.6,39.6,29.81,SSE,159,0.0,0.0,89,0.00,,,0.00,VWS V14.00,2013-03-21 02:47:00,
2013-03-20 22:52:00,42.3,39.6,29.80,SSE,159,0.0,0.0,90,0.00,,,0.00,VWS V14.00,2013-03-21 02:52:00,
2013-03-20 22:57:00,42.0,39.6,29.80,SSE,159,0.0,0.0,91,0.00,,,0.00,VWS V14.00,2013-03-21 02:57:00,
2013-03-20 23:02:00,41.9,39.5,29.80,SSE,159,0.0,0.0,91,0.00,,,0.00,VWS V14.00,2013-03-21 03:02:00,
2013-03-20 23:08:00,41.8,39.4,29.80,SSE,159,0.0,0.0,91,0.00,,,0.00,VWS V14.00,2013-03-21 03:08:00,
2013-03-20 23:13:00,41.6,39.5,29.80,SSE,159,0.0,0.0,92,0.00,,,0.00,VWS V14.00,2013-03-21 03:13:00,
2013-03-20 23:18:00,41.3,38.9,29.80,SSE,159,0.0,0.0,91,0.00,,,0.00,VWS V14.00,2013-03-21 03:18:00,
2013-03-20 23:23:00,41.1,38.7,29.80,SSE,159,0.0,0.0,91,0.00,,,0.00,VWS V14.00,2013-03-21 03:23:00,
2013-03-20 23:28:00,40.9,38.5,29.79,SSE,159,0.0,0.0,91,0.00,,,0.00,VWS V14.00,2013-03-21 03:28:00,
2013-03-20 23:33:00,40.7,38.6,29.79,SSE,159,0.0,0.0,92,0.00,,,0.00,VWS V14.00,2013-03-21 03:33:00,
2013-03-20 23:38:00,40.4,38.3,29.79,SSE,159,0.0,0.0,92,0.00,,,0.00,VWS V14.00,2013-03-21 03:38:00,
2013-03-20 23:43:00,40.2,38.1,29.79,SSE,159,0.0,0.0,92,0.00,,,0.00,VWS V14.00,2013-03-21 03:43:00,
2013-03-20 23:48:00,40.0,37.9,29.78,SSE,159,0.0,0.0,92,0.00,,,0.00,VWS V14.00,2013-03-21 03:48:00,
2013-03-20 23:54:00,39.7,37.6,29.78,SSE,159,0.0,0.0,92,0.00,,,0.00,VWS V14.00,2013-03-21 03:54:00,
2013-03-20 23:59:00,39.5,37.4,29.78,SSE,159,0.0,0.0,92,0.00,,,0.00,VWS V14.00,2013-03-21 03:59:00,